sensor_id;sensor_type;location;lat;lon;timestamp;P1;durP1;ratioP1;P2;durP2;ratioP2
64188;SDS011;50493;50.970;10.082;2022-07-23T00:01:25;6.43;;;5.10;;
64188;SDS011;50493;50.970;10.082;2022-07-23T00:03:52;7.70;;;5.57;;
64188;SDS011;50493;50.970;10.082;2022-07-23T00:06:19;8.60;;;5.50;;
64188;SDS011;50493;50.970;10.082;2022-07-23T00:08:46;5.80;;;4.95;;
64188;SDS011;50493;50.970;10.082;2022-07-23T00:11:11;8.07;;;5.22;;
64188;SDS011;50493;50.970;10.082;2022-07-23T00:13:37;7.35;;;6.03;;
64188;SDS011;50493;50.970;10.082;2022-07-23T00:16:02;8.38;;;5.82;;
64188;SDS011;50493;50.970;10.082;2022-07-23T00:18:28;6.60;;;5.45;;
64188;SDS011;50493;50.970;10.082;2022-07-23T00:20:54;8.38;;;5.93;;
64188;SDS011;50493;50.970;10.082;2022-07-23T00:23:19;7.47;;;4.85;;
64188;SDS011;50493;50.970;10.082;2022-07-23T00:25:46;7.80;;;5.75;;
64188;SDS011;50493;50.970;10.082;2022-07-23T00:28:11;6.90;;;5.40;;
64188;SDS011;50493;50.970;10.082;2022-07-23T00:30:37;6.80;;;5.28;;
64188;SDS011;50493;50.970;10.082;2022-07-23T00:33:03;7.15;;;5.55;;
64188;SDS011;50493;50.970;10.082;2022-07-23T00:35:31;7.47;;;5.90;;
64188;SDS011;50493;50.970;10.082;2022-07-23T00:37:58;6.85;;;5.43;;
64188;SDS011;50493;50.970;10.082;2022-07-23T00:40:24;7.07;;;5.63;;
64188;SDS011;50493;50.970;10.082;2022-07-23T00:42:51;7.18;;;5.50;;
64188;SDS011;50493;50.970;10.082;2022-07-23T00:45:17;7.47;;;5.63;;
64188;SDS011;50493;50.970;10.082;2022-07-23T00:47:43;8.32;;;5.78;;
64188;SDS011;50493;50.970;10.082;2022-07-23T00:50:09;6.95;;;4.80;;
64188;SDS011;50493;50.970;10.082;2022-07-23T00:52:35;6.03;;;5.28;;
64188;SDS011;50493;50.970;10.082;2022-07-23T00:55:02;7.93;;;5.03;;
64188;SDS011;50493;50.970;10.082;2022-07-23T00:57:28;6.47;;;4.68;;
64188;SDS011;50493;50.970;10.082;2022-07-23T00:59:55;7.43;;;5.75;;
64188;SDS011;50493;50.970;10.082;2022-07-23T01:02:22;8.23;;;5.65;;
64188;SDS011;50493;50.970;10.082;2022-07-23T01:04:48;6.70;;;4.93;;
64188;SDS011;50493;50.970;10.082;2022-07-23T01:07:13;7.18;;;5.55;;
64188;SDS011;50493;50.970;10.082;2022-07-23T01:09:39;8.48;;;5.88;;
64188;SDS011;50493;50.970;10.082;2022-07-23T01:12:05;8.38;;;5.50;;
64188;SDS011;50493;50.970;10.082;2022-07-23T01:14:31;9.02;;;5.63;;
64188;SDS011;50493;50.970;10.082;2022-07-23T01:16:58;9.00;;;5.88;;
64188;SDS011;50493;50.970;10.082;2022-07-23T01:19:23;10.68;;;6.10;;
64188;SDS011;50493;50.970;10.082;2022-07-23T01:21:50;7.30;;;5.38;;
64188;SDS011;50493;50.970;10.082;2022-07-23T01:24:17;8.63;;;5.97;;
64188;SDS011;50493;50.970;10.082;2022-07-23T01:26:47;9.65;;;6.25;;
64188;SDS011;50493;50.970;10.082;2022-07-23T01:29:13;8.23;;;5.93;;
64188;SDS011;50493;50.970;10.082;2022-07-23T01:31:39;9.75;;;5.95;;
64188;SDS011;50493;50.970;10.082;2022-07-23T01:34:05;7.43;;;5.00;;
64188;SDS011;50493;50.970;10.082;2022-07-23T01:36:32;7.60;;;5.40;;
64188;SDS011;50493;50.970;10.082;2022-07-23T01:38:57;7.43;;;5.07;;
64188;SDS011;50493;50.970;10.082;2022-07-23T01:41:24;9.10;;;5.53;;
64188;SDS011;50493;50.970;10.082;2022-07-23T01:43:49;23.20;;;12.73;;
64188;SDS011;50493;50.970;10.082;2022-07-23T01:46:15;11.77;;;7.85;;
64188;SDS011;50493;50.970;10.082;2022-07-23T01:48:40;10.50;;;6.60;;
64188;SDS011;50493;50.970;10.082;2022-07-23T01:51:07;9.88;;;6.97;;
64188;SDS011;50493;50.970;10.082;2022-07-23T01:53:32;10.43;;;6.90;;
64188;SDS011;50493;50.970;10.082;2022-07-23T01:55:58;10.40;;;7.03;;
64188;SDS011;50493;50.970;10.082;2022-07-23T01:58:25;8.85;;;6.50;;
64188;SDS011;50493;50.970;10.082;2022-07-23T02:00:50;8.15;;;6.45;;
64188;SDS011;50493;50.970;10.082;2022-07-23T02:03:16;9.52;;;6.70;;
64188;SDS011;50493;50.970;10.082;2022-07-23T02:05:41;8.75;;;6.18;;
64188;SDS011;50493;50.970;10.082;2022-07-23T02:08:07;9.05;;;6.18;;
64188;SDS011;50493;50.970;10.082;2022-07-23T02:10:32;8.02;;;6.10;;
64188;SDS011;50493;50.970;10.082;2022-07-23T02:12:58;8.13;;;6.00;;
64188;SDS011;50493;50.970;10.082;2022-07-23T02:15:24;9.93;;;5.97;;
64188;SDS011;50493;50.970;10.082;2022-07-23T02:17:50;8.50;;;6.93;;
64188;SDS011;50493;50.970;10.082;2022-07-23T02:20:15;8.95;;;6.50;;
64188;SDS011;50493;50.970;10.082;2022-07-23T02:22:41;8.13;;;6.05;;
64188;SDS011;50493;50.970;10.082;2022-07-23T02:25:07;8.88;;;6.25;;
64188;SDS011;50493;50.970;10.082;2022-07-23T02:27:33;9.07;;;5.82;;
64188;SDS011;50493;50.970;10.082;2022-07-23T02:29:59;8.02;;;5.85;;
64188;SDS011;50493;50.970;10.082;2022-07-23T02:32:26;7.55;;;5.47;;
64188;SDS011;50493;50.970;10.082;2022-07-23T02:34:51;8.00;;;6.10;;
64188;SDS011;50493;50.970;10.082;2022-07-23T02:37:17;7.75;;;5.80;;
64188;SDS011;50493;50.970;10.082;2022-07-23T02:39:42;7.20;;;5.80;;
64188;SDS011;50493;50.970;10.082;2022-07-23T02:42:08;8.80;;;5.90;;
64188;SDS011;50493;50.970;10.082;2022-07-23T02:44:34;6.78;;;5.60;;
64188;SDS011;50493;50.970;10.082;2022-07-23T02:46:59;8.32;;;6.03;;
64188;SDS011;50493;50.970;10.082;2022-07-23T02:49:26;9.05;;;5.93;;
64188;SDS011;50493;50.970;10.082;2022-07-23T02:51:51;7.47;;;5.85;;
64188;SDS011;50493;50.970;10.082;2022-07-23T02:54:17;11.23;;;6.18;;
64188;SDS011;50493;50.970;10.082;2022-07-23T02:56:42;8.20;;;6.55;;
64188;SDS011;50493;50.970;10.082;2022-07-23T02:59:08;7.53;;;6.00;;
64188;SDS011;50493;50.970;10.082;2022-07-23T03:01:33;9.25;;;6.53;;
64188;SDS011;50493;50.970;10.082;2022-07-23T03:03:59;7.07;;;5.70;;
64188;SDS011;50493;50.970;10.082;2022-07-23T03:06:25;8.93;;;6.47;;
64188;SDS011;50493;50.970;10.082;2022-07-23T03:08:51;7.88;;;6.00;;
64188;SDS011;50493;50.970;10.082;2022-07-23T03:11:16;7.55;;;5.90;;
64188;SDS011;50493;50.970;10.082;2022-07-23T03:13:42;9.05;;;6.32;;
64188;SDS011;50493;50.970;10.082;2022-07-23T03:16:07;8.15;;;6.05;;
64188;SDS011;50493;50.970;10.082;2022-07-23T03:18:33;9.27;;;6.38;;
64188;SDS011;50493;50.970;10.082;2022-07-23T03:20:58;7.88;;;6.28;;
64188;SDS011;50493;50.970;10.082;2022-07-23T03:23:26;8.25;;;6.20;;
64188;SDS011;50493;50.970;10.082;2022-07-23T03:25:51;7.88;;;5.80;;
64188;SDS011;50493;50.970;10.082;2022-07-23T03:28:17;7.35;;;5.80;;
64188;SDS011;50493;50.970;10.082;2022-07-23T03:30:43;12.02;;;7.07;;
64188;SDS011;50493;50.970;10.082;2022-07-23T03:33:11;9.77;;;7.43;;
64188;SDS011;50493;50.970;10.082;2022-07-23T03:35:36;10.68;;;7.85;;
64188;SDS011;50493;50.970;10.082;2022-07-23T03:38:02;9.05;;;7.25;;
64188;SDS011;50493;50.970;10.082;2022-07-23T03:40:29;12.43;;;7.75;;
64188;SDS011;50493;50.970;10.082;2022-07-23T03:42:54;9.40;;;7.57;;
64188;SDS011;50493;50.970;10.082;2022-07-23T03:45:19;10.05;;;6.95;;
64188;SDS011;50493;50.970;10.082;2022-07-23T03:47:45;9.13;;;7.20;;
64188;SDS011;50493;50.970;10.082;2022-07-23T03:50:10;10.18;;;7.63;;
64188;SDS011;50493;50.970;10.082;2022-07-23T03:52:36;9.98;;;7.43;;
64188;SDS011;50493;50.970;10.082;2022-07-23T03:55:01;9.38;;;7.43;;
64188;SDS011;50493;50.970;10.082;2022-07-23T03:57:29;9.60;;;6.90;;
64188;SDS011;50493;50.970;10.082;2022-07-23T03:59:54;9.02;;;7.03;;
64188;SDS011;50493;50.970;10.082;2022-07-23T04:02:20;10.27;;;6.95;;
64188;SDS011;50493;50.970;10.082;2022-07-23T04:04:45;10.00;;;6.80;;
64188;SDS011;50493;50.970;10.082;2022-07-23T04:07:11;9.07;;;6.82;;
64188;SDS011;50493;50.970;10.082;2022-07-23T04:09:37;10.00;;;6.72;;
64188;SDS011;50493;50.970;10.082;2022-07-23T04:12:02;8.13;;;6.20;;
64188;SDS011;50493;50.970;10.082;2022-07-23T04:14:29;7.60;;;6.30;;
64188;SDS011;50493;50.970;10.082;2022-07-23T04:16:55;9.25;;;6.85;;
64188;SDS011;50493;50.970;10.082;2022-07-23T04:19:20;9.13;;;6.32;;
64188;SDS011;50493;50.970;10.082;2022-07-23T04:21:46;8.43;;;6.05;;
64188;SDS011;50493;50.970;10.082;2022-07-23T04:24:11;7.90;;;6.20;;
64188;SDS011;50493;50.970;10.082;2022-07-23T04:26:36;9.32;;;6.82;;
64188;SDS011;50493;50.970;10.082;2022-07-23T04:29:02;7.80;;;6.03;;
64188;SDS011;50493;50.970;10.082;2022-07-23T04:31:28;8.35;;;5.95;;
64188;SDS011;50493;50.970;10.082;2022-07-23T04:33:54;8.80;;;6.45;;
64188;SDS011;50493;50.970;10.082;2022-07-23T04:36:19;10.45;;;6.35;;
64188;SDS011;50493;50.970;10.082;2022-07-23T04:38:44;8.60;;;6.15;;
64188;SDS011;50493;50.970;10.082;2022-07-23T04:41:10;7.80;;;6.15;;
64188;SDS011;50493;50.970;10.082;2022-07-23T04:43:35;8.75;;;6.38;;
64188;SDS011;50493;50.970;10.082;2022-07-23T04:46:00;8.68;;;6.03;;
64188;SDS011;50493;50.970;10.082;2022-07-23T04:48:27;9.98;;;6.38;;
64188;SDS011;50493;50.970;10.082;2022-07-23T04:50:52;7.80;;;6.05;;
64188;SDS011;50493;50.970;10.082;2022-07-23T04:53:18;9.95;;;6.22;;
64188;SDS011;50493;50.970;10.082;2022-07-23T04:55:44;9.13;;;6.15;;
64188;SDS011;50493;50.970;10.082;2022-07-23T04:58:10;8.98;;;6.32;;
64188;SDS011;50493;50.970;10.082;2022-07-23T05:00:35;9.75;;;6.30;;
64188;SDS011;50493;50.970;10.082;2022-07-23T05:03:01;8.38;;;5.88;;
64188;SDS011;50493;50.970;10.082;2022-07-23T05:05:28;9.18;;;5.45;;
64188;SDS011;50493;50.970;10.082;2022-07-23T05:07:53;8.38;;;6.28;;
64188;SDS011;50493;50.970;10.082;2022-07-23T05:10:18;8.30;;;6.00;;
64188;SDS011;50493;50.970;10.082;2022-07-23T05:12:44;8.02;;;5.93;;
64188;SDS011;50493;50.970;10.082;2022-07-23T05:15:09;7.20;;;5.70;;
64188;SDS011;50493;50.970;10.082;2022-07-23T05:17:35;8.05;;;6.30;;
64188;SDS011;50493;50.970;10.082;2022-07-23T05:20:00;8.70;;;6.28;;
64188;SDS011;50493;50.970;10.082;2022-07-23T05:22:27;8.80;;;6.35;;
64188;SDS011;50493;50.970;10.082;2022-07-23T05:24:52;9.10;;;5.90;;
64188;SDS011;50493;50.970;10.082;2022-07-23T05:27:18;9.07;;;5.85;;
64188;SDS011;50493;50.970;10.082;2022-07-23T05:29:43;8.80;;;6.05;;
64188;SDS011;50493;50.970;10.082;2022-07-23T05:32:08;9.55;;;7.20;;
64188;SDS011;50493;50.970;10.082;2022-07-23T05:34:34;8.18;;;6.10;;
64188;SDS011;50493;50.970;10.082;2022-07-23T05:36:59;9.57;;;6.63;;
64188;SDS011;50493;50.970;10.082;2022-07-23T05:39:26;8.82;;;6.53;;
64188;SDS011;50493;50.970;10.082;2022-07-23T05:41:51;10.07;;;6.63;;
64188;SDS011;50493;50.970;10.082;2022-07-23T05:44:17;9.98;;;6.55;;
64188;SDS011;50493;50.970;10.082;2022-07-23T05:46:42;8.80;;;6.50;;
64188;SDS011;50493;50.970;10.082;2022-07-23T05:49:07;8.52;;;6.13;;
64188;SDS011;50493;50.970;10.082;2022-07-23T05:51:33;9.63;;;6.63;;
64188;SDS011;50493;50.970;10.082;2022-07-23T05:53:58;7.25;;;5.50;;
64188;SDS011;50493;50.970;10.082;2022-07-23T05:56:25;7.97;;;5.88;;
64188;SDS011;50493;50.970;10.082;2022-07-23T05:58:50;7.15;;;5.70;;
64188;SDS011;50493;50.970;10.082;2022-07-23T06:01:16;8.80;;;6.38;;
64188;SDS011;50493;50.970;10.082;2022-07-23T06:03:41;10.85;;;8.00;;
64188;SDS011;50493;50.970;10.082;2022-07-23T06:06:06;9.45;;;6.35;;
64188;SDS011;50493;50.970;10.082;2022-07-23T06:08:32;8.55;;;6.47;;
64188;SDS011;50493;50.970;10.082;2022-07-23T06:10:57;8.80;;;6.60;;
64188;SDS011;50493;50.970;10.082;2022-07-23T06:13:24;7.88;;;5.82;;
64188;SDS011;50493;50.970;10.082;2022-07-23T06:15:50;8.10;;;6.68;;
64188;SDS011;50493;50.970;10.082;2022-07-23T06:18:15;9.60;;;6.32;;
64188;SDS011;50493;50.970;10.082;2022-07-23T06:20:41;10.15;;;6.40;;
64188;SDS011;50493;50.970;10.082;2022-07-23T06:23:06;7.45;;;5.95;;
64188;SDS011;50493;50.970;10.082;2022-07-23T06:25:31;8.80;;;5.88;;
64188;SDS011;50493;50.970;10.082;2022-07-23T06:27:57;8.48;;;5.88;;
64188;SDS011;50493;50.970;10.082;2022-07-23T06:30:23;8.40;;;6.03;;
64188;SDS011;50493;50.970;10.082;2022-07-23T06:32:49;10.13;;;6.03;;
64188;SDS011;50493;50.970;10.082;2022-07-23T06:35:14;8.32;;;6.00;;
64188;SDS011;50493;50.970;10.082;2022-07-23T06:37:40;7.78;;;5.90;;
64188;SDS011;50493;50.970;10.082;2022-07-23T06:40:06;9.50;;;6.15;;
64188;SDS011;50493;50.970;10.082;2022-07-23T06:42:32;7.65;;;6.03;;
64188;SDS011;50493;50.970;10.082;2022-07-23T06:44:57;8.70;;;5.95;;
64188;SDS011;50493;50.970;10.082;2022-07-23T06:47:24;8.15;;;6.45;;
64188;SDS011;50493;50.970;10.082;2022-07-23T06:49:49;7.65;;;6.20;;
64188;SDS011;50493;50.970;10.082;2022-07-23T06:52:15;8.25;;;6.32;;
64188;SDS011;50493;50.970;10.082;2022-07-23T06:54:40;7.15;;;5.90;;
64188;SDS011;50493;50.970;10.082;2022-07-23T06:57:05;8.77;;;6.65;;
64188;SDS011;50493;50.970;10.082;2022-07-23T06:59:31;8.82;;;6.50;;
64188;SDS011;50493;50.970;10.082;2022-07-23T07:01:56;8.00;;;6.25;;
64188;SDS011;50493;50.970;10.082;2022-07-23T07:04:24;10.00;;;7.00;;
64188;SDS011;50493;50.970;10.082;2022-07-23T07:06:49;8.95;;;6.60;;
64188;SDS011;50493;50.970;10.082;2022-07-23T07:09:15;9.73;;;6.45;;
64188;SDS011;50493;50.970;10.082;2022-07-23T07:11:40;9.23;;;6.25;;
64188;SDS011;50493;50.970;10.082;2022-07-23T07:14:06;7.47;;;6.15;;
64188;SDS011;50493;50.970;10.082;2022-07-23T07:16:31;8.20;;;6.35;;
64188;SDS011;50493;50.970;10.082;2022-07-23T07:18:57;9.45;;;6.63;;
64188;SDS011;50493;50.970;10.082;2022-07-23T07:21:23;10.27;;;7.03;;
64188;SDS011;50493;50.970;10.082;2022-07-23T07:23:49;8.10;;;6.30;;
64188;SDS011;50493;50.970;10.082;2022-07-23T07:26:14;9.68;;;7.18;;
64188;SDS011;50493;50.970;10.082;2022-07-23T07:28:39;10.73;;;7.65;;
64188;SDS011;50493;50.970;10.082;2022-07-23T07:31:05;8.82;;;6.93;;
64188;SDS011;50493;50.970;10.082;2022-07-23T07:33:30;9.82;;;7.28;;
64188;SDS011;50493;50.970;10.082;2022-07-23T07:35:56;9.65;;;6.90;;
64188;SDS011;50493;50.970;10.082;2022-07-23T07:38:22;8.50;;;6.60;;
64188;SDS011;50493;50.970;10.082;2022-07-23T07:40:48;9.13;;;6.90;;
64188;SDS011;50493;50.970;10.082;2022-07-23T07:43:13;8.52;;;6.85;;
64188;SDS011;50493;50.970;10.082;2022-07-23T07:45:39;10.38;;;7.47;;
64188;SDS011;50493;50.970;10.082;2022-07-23T07:48:04;8.68;;;6.65;;
64188;SDS011;50493;50.970;10.082;2022-07-23T07:50:30;10.23;;;7.82;;
64188;SDS011;50493;50.970;10.082;2022-07-23T07:52:55;8.98;;;6.65;;
64188;SDS011;50493;50.970;10.082;2022-07-23T07:55:22;8.85;;;6.88;;
64188;SDS011;50493;50.970;10.082;2022-07-23T07:57:47;10.10;;;7.88;;
64188;SDS011;50493;50.970;10.082;2022-07-23T08:00:13;8.38;;;6.47;;
64188;SDS011;50493;50.970;10.082;2022-07-23T08:02:39;8.60;;;7.20;;
64188;SDS011;50493;50.970;10.082;2022-07-23T08:05:09;9.27;;;6.70;;
64188;SDS011;50493;50.970;10.082;2022-07-23T08:07:35;13.43;;;8.35;;
64188;SDS011;50493;50.970;10.082;2022-07-23T08:10:00;8.35;;;6.47;;
64188;SDS011;50493;50.970;10.082;2022-07-23T08:12:27;8.95;;;6.80;;
64188;SDS011;50493;50.970;10.082;2022-07-23T08:14:53;8.75;;;6.70;;
64188;SDS011;50493;50.970;10.082;2022-07-23T08:17:18;8.40;;;6.60;;
64188;SDS011;50493;50.970;10.082;2022-07-23T08:19:43;15.05;;;9.77;;
64188;SDS011;50493;50.970;10.082;2022-07-23T08:22:09;7.88;;;6.30;;
64188;SDS011;50493;50.970;10.082;2022-07-23T08:24:34;7.80;;;5.95;;
64188;SDS011;50493;50.970;10.082;2022-07-23T08:26:59;8.60;;;6.75;;
64188;SDS011;50493;50.970;10.082;2022-07-23T08:29:26;10.18;;;8.13;;
64188;SDS011;50493;50.970;10.082;2022-07-23T08:31:52;8.32;;;7.07;;
64188;SDS011;50493;50.970;10.082;2022-07-23T08:34:17;8.55;;;6.47;;
64188;SDS011;50493;50.970;10.082;2022-07-23T08:36:42;7.57;;;6.53;;
64188;SDS011;50493;50.970;10.082;2022-07-23T08:39:08;8.60;;;7.20;;
64188;SDS011;50493;50.970;10.082;2022-07-23T08:41:33;8.63;;;6.72;;
64188;SDS011;50493;50.970;10.082;2022-07-23T08:43:59;8.02;;;6.70;;
64188;SDS011;50493;50.970;10.082;2022-07-23T08:46:27;8.05;;;6.65;;
64188;SDS011;50493;50.970;10.082;2022-07-23T08:48:52;9.30;;;7.75;;
64188;SDS011;50493;50.970;10.082;2022-07-23T08:51:19;12.00;;;8.73;;
64188;SDS011;50493;50.970;10.082;2022-07-23T08:53:45;11.10;;;8.30;;
64188;SDS011;50493;50.970;10.082;2022-07-23T08:56:12;10.93;;;8.52;;
64188;SDS011;50493;50.970;10.082;2022-07-23T08:58:38;11.73;;;8.43;;
64188;SDS011;50493;50.970;10.082;2022-07-23T09:01:03;10.00;;;7.97;;
64188;SDS011;50493;50.970;10.082;2022-07-23T09:03:31;10.25;;;8.10;;
64188;SDS011;50493;50.970;10.082;2022-07-23T09:05:59;10.70;;;8.07;;
64188;SDS011;50493;50.970;10.082;2022-07-23T09:08:27;10.57;;;8.25;;
64188;SDS011;50493;50.970;10.082;2022-07-23T09:11:00;9.18;;;8.10;;
64188;SDS011;50493;50.970;10.082;2022-07-23T09:13:28;12.25;;;9.50;;
64188;SDS011;50493;50.970;10.082;2022-07-23T09:15:56;10.55;;;8.65;;
64188;SDS011;50493;50.970;10.082;2022-07-23T09:18:31;11.90;;;9.38;;
64188;SDS011;50493;50.970;10.082;2022-07-23T09:21:07;7.57;;;6.70;;
64188;SDS011;50493;50.970;10.082;2022-07-23T09:23:44;10.23;;;7.88;;
64188;SDS011;50493;50.970;10.082;2022-07-23T09:26:21;9.43;;;7.80;;
64188;SDS011;50493;50.970;10.082;2022-07-23T09:28:53;11.07;;;8.27;;
64188;SDS011;50493;50.970;10.082;2022-07-23T09:31:20;9.25;;;7.07;;
64188;SDS011;50493;50.970;10.082;2022-07-23T09:33:48;8.88;;;6.95;;
64188;SDS011;50493;50.970;10.082;2022-07-23T09:36:13;12.70;;;8.00;;
64188;SDS011;50493;50.970;10.082;2022-07-23T09:38:47;9.77;;;7.78;;
64188;SDS011;50493;50.970;10.082;2022-07-23T09:41:13;11.35;;;8.13;;
64188;SDS011;50493;50.970;10.082;2022-07-23T09:43:39;9.10;;;7.55;;
64188;SDS011;50493;50.970;10.082;2022-07-23T09:46:17;9.25;;;7.93;;
64188;SDS011;50493;50.970;10.082;2022-07-23T09:48:44;10.82;;;8.68;;
64188;SDS011;50493;50.970;10.082;2022-07-23T09:51:11;9.30;;;7.25;;
64188;SDS011;50493;50.970;10.082;2022-07-23T09:53:37;12.05;;;8.35;;
64188;SDS011;50493;50.970;10.082;2022-07-23T09:56:02;9.82;;;7.97;;
64188;SDS011;50493;50.970;10.082;2022-07-23T09:58:28;8.88;;;7.18;;
64188;SDS011;50493;50.970;10.082;2022-07-23T10:00:56;8.65;;;7.72;;
64188;SDS011;50493;50.970;10.082;2022-07-23T10:03:23;8.75;;;7.78;;
64188;SDS011;50493;50.970;10.082;2022-07-23T10:05:48;9.77;;;7.28;;
64188;SDS011;50493;50.970;10.082;2022-07-23T10:08:17;7.50;;;6.53;;
64188;SDS011;50493;50.970;10.082;2022-07-23T10:10:43;8.00;;;7.10;;
64188;SDS011;50493;50.970;10.082;2022-07-23T10:13:11;8.52;;;7.13;;
64188;SDS011;50493;50.970;10.082;2022-07-23T10:16:05;9.02;;;7.90;;
64188;SDS011;50493;50.970;10.082;2022-07-23T10:18:32;8.65;;;7.13;;
64188;SDS011;50493;50.970;10.082;2022-07-23T10:20:58;9.38;;;7.78;;
64188;SDS011;50493;50.970;10.082;2022-07-23T10:23:30;9.20;;;7.47;;
64188;SDS011;50493;50.970;10.082;2022-07-23T10:26:05;7.60;;;6.75;;
64188;SDS011;50493;50.970;10.082;2022-07-23T10:31:28;8.50;;;6.60;;
64188;SDS011;50493;50.970;10.082;2022-07-23T10:34:02;8.43;;;7.15;;
64188;SDS011;50493;50.970;10.082;2022-07-23T10:36:38;9.10;;;6.57;;
64188;SDS011;50493;50.970;10.082;2022-07-23T10:39:10;8.50;;;6.68;;
64188;SDS011;50493;50.970;10.082;2022-07-23T10:41:40;8.35;;;7.07;;
64188;SDS011;50493;50.970;10.082;2022-07-23T10:44:07;8.07;;;7.00;;
64188;SDS011;50493;50.970;10.082;2022-07-23T10:46:33;8.88;;;6.50;;
64188;SDS011;50493;50.970;10.082;2022-07-23T10:49:29;13.30;;;7.97;;
64188;SDS011;50493;50.970;10.082;2022-07-23T10:54:49;8.43;;;6.72;;
64188;SDS011;50493;50.970;10.082;2022-07-23T10:57:16;8.50;;;6.97;;
64188;SDS011;50493;50.970;10.082;2022-07-23T11:02:47;9.70;;;7.50;;
64188;SDS011;50493;50.970;10.082;2022-07-23T11:05:14;7.68;;;6.75;;
64188;SDS011;50493;50.970;10.082;2022-07-23T11:10:41;9.13;;;6.90;;
64188;SDS011;50493;50.970;10.082;2022-07-23T11:13:28;9.18;;;6.55;;
64188;SDS011;50493;50.970;10.082;2022-07-23T11:16:12;7.93;;;6.95;;
64188;SDS011;50493;50.970;10.082;2022-07-23T11:21:43;7.10;;;6.38;;
64188;SDS011;50493;50.970;10.082;2022-07-23T11:24:11;9.77;;;7.47;;
64188;SDS011;50493;50.970;10.082;2022-07-23T11:26:44;7.75;;;5.68;;
64188;SDS011;50493;50.970;10.082;2022-07-23T11:32:03;7.47;;;6.65;;
64188;SDS011;50493;50.970;10.082;2022-07-23T11:34:30;10.88;;;8.00;;
64188;SDS011;50493;50.970;10.082;2022-07-23T11:36:57;8.43;;;6.50;;
64188;SDS011;50493;50.970;10.082;2022-07-23T11:39:24;8.70;;;6.60;;
64188;SDS011;50493;50.970;10.082;2022-07-23T11:41:52;8.07;;;6.78;;
64188;SDS011;50493;50.970;10.082;2022-07-23T11:44:24;8.68;;;7.00;;
64188;SDS011;50493;50.970;10.082;2022-07-23T11:46:54;7.50;;;6.20;;
64188;SDS011;50493;50.970;10.082;2022-07-23T11:49:20;7.95;;;6.10;;
64188;SDS011;50493;50.970;10.082;2022-07-23T11:51:45;7.43;;;5.70;;
64188;SDS011;50493;50.970;10.082;2022-07-23T11:54:11;8.05;;;5.65;;
64188;SDS011;50493;50.970;10.082;2022-07-23T11:56:36;7.07;;;5.70;;
64188;SDS011;50493;50.970;10.082;2022-07-23T11:59:03;7.40;;;5.65;;
64188;SDS011;50493;50.970;10.082;2022-07-23T12:01:30;7.30;;;6.07;;
64188;SDS011;50493;50.970;10.082;2022-07-23T12:03:55;6.70;;;5.47;;
64188;SDS011;50493;50.970;10.082;2022-07-23T12:06:20;6.68;;;5.53;;
64188;SDS011;50493;50.970;10.082;2022-07-23T12:08:46;7.10;;;5.60;;
64188;SDS011;50493;50.970;10.082;2022-07-23T12:11:11;7.88;;;5.22;;
64188;SDS011;50493;50.970;10.082;2022-07-23T12:13:37;7.07;;;5.07;;
64188;SDS011;50493;50.970;10.082;2022-07-23T12:16:04;11.98;;;5.70;;
64188;SDS011;50493;50.970;10.082;2022-07-23T12:18:30;7.65;;;5.60;;
64188;SDS011;50493;50.970;10.082;2022-07-23T12:20:56;6.28;;;5.63;;
64188;SDS011;50493;50.970;10.082;2022-07-23T12:23:24;6.45;;;5.25;;
64188;SDS011;50493;50.970;10.082;2022-07-23T12:25:51;7.57;;;5.38;;
64188;SDS011;50493;50.970;10.082;2022-07-23T12:28:17;6.28;;;4.97;;
64188;SDS011;50493;50.970;10.082;2022-07-23T12:30:45;6.32;;;4.70;;
64188;SDS011;50493;50.970;10.082;2022-07-23T12:33:14;6.78;;;5.30;;
64188;SDS011;50493;50.970;10.082;2022-07-23T12:35:46;6.25;;;4.57;;
64188;SDS011;50493;50.970;10.082;2022-07-23T12:38:13;10.45;;;5.25;;
64188;SDS011;50493;50.970;10.082;2022-07-23T12:40:42;6.65;;;4.78;;
64188;SDS011;50493;50.970;10.082;2022-07-23T12:43:10;5.60;;;4.72;;
64188;SDS011;50493;50.970;10.082;2022-07-23T12:45:44;7.78;;;5.10;;
64188;SDS011;50493;50.970;10.082;2022-07-23T12:48:19;6.93;;;5.13;;
64188;SDS011;50493;50.970;10.082;2022-07-23T12:50:53;7.15;;;5.18;;
64188;SDS011;50493;50.970;10.082;2022-07-23T12:53:21;7.72;;;5.40;;
64188;SDS011;50493;50.970;10.082;2022-07-23T12:55:48;5.85;;;4.80;;
64188;SDS011;50493;50.970;10.082;2022-07-23T12:58:16;9.48;;;5.55;;
64188;SDS011;50493;50.970;10.082;2022-07-23T13:00:50;7.97;;;5.28;;
64188;SDS011;50493;50.970;10.082;2022-07-23T13:03:24;6.10;;;4.43;;
64188;SDS011;50493;50.970;10.082;2022-07-23T13:05:50;7.57;;;4.70;;
64188;SDS011;50493;50.970;10.082;2022-07-23T13:08:16;5.40;;;4.38;;
64188;SDS011;50493;50.970;10.082;2022-07-23T13:10:41;5.65;;;4.32;;
64188;SDS011;50493;50.970;10.082;2022-07-23T13:13:07;5.32;;;4.20;;
64188;SDS011;50493;50.970;10.082;2022-07-23T13:15:33;6.70;;;4.43;;
64188;SDS011;50493;50.970;10.082;2022-07-23T13:17:59;5.53;;;4.45;;
64188;SDS011;50493;50.970;10.082;2022-07-23T13:20:25;8.18;;;4.22;;
64188;SDS011;50493;50.970;10.082;2022-07-23T13:22:51;5.80;;;4.47;;
64188;SDS011;50493;50.970;10.082;2022-07-23T13:25:16;6.63;;;4.65;;
64188;SDS011;50493;50.970;10.082;2022-07-23T13:27:42;8.05;;;4.50;;
64188;SDS011;50493;50.970;10.082;2022-07-23T13:30:08;5.85;;;4.40;;
64188;SDS011;50493;50.970;10.082;2022-07-23T13:32:35;5.10;;;3.97;;
64188;SDS011;50493;50.970;10.082;2022-07-23T13:35:01;9.00;;;4.32;;
64188;SDS011;50493;50.970;10.082;2022-07-23T13:37:27;5.38;;;3.83;;
64188;SDS011;50493;50.970;10.082;2022-07-23T13:39:53;7.78;;;4.30;;
64188;SDS011;50493;50.970;10.082;2022-07-23T13:42:18;10.25;;;4.50;;
64188;SDS011;50493;50.970;10.082;2022-07-23T13:44:44;8.98;;;4.45;;
64188;SDS011;50493;50.970;10.082;2022-07-23T13:47:09;17.85;;;4.68;;
64188;SDS011;50493;50.970;10.082;2022-07-23T13:49:34;7.07;;;4.18;;
64188;SDS011;50493;50.970;10.082;2022-07-23T13:52:00;15.75;;;5.43;;
64188;SDS011;50493;50.970;10.082;2022-07-23T13:54:27;10.73;;;4.75;;
64188;SDS011;50493;50.970;10.082;2022-07-23T13:56:53;7.20;;;4.10;;
64188;SDS011;50493;50.970;10.082;2022-07-23T13:59:18;6.00;;;4.40;;
64188;SDS011;50493;50.970;10.082;2022-07-23T14:01:44;13.25;;;4.80;;
64188;SDS011;50493;50.970;10.082;2022-07-23T14:04:09;5.88;;;4.30;;
64188;SDS011;50493;50.970;10.082;2022-07-23T14:06:34;7.80;;;4.40;;
64188;SDS011;50493;50.970;10.082;2022-07-23T14:09:00;5.47;;;4.28;;
64188;SDS011;50493;50.970;10.082;2022-07-23T14:11:27;5.22;;;4.30;;
64188;SDS011;50493;50.970;10.082;2022-07-23T14:13:53;7.38;;;4.32;;
64188;SDS011;50493;50.970;10.082;2022-07-23T14:16:18;7.93;;;4.43;;
64188;SDS011;50493;50.970;10.082;2022-07-23T14:18:43;6.22;;;4.47;;
64188;SDS011;50493;50.970;10.082;2022-07-23T14:21:09;5.80;;;4.18;;
64188;SDS011;50493;50.970;10.082;2022-07-23T14:23:34;8.13;;;4.57;;
64188;SDS011;50493;50.970;10.082;2022-07-23T14:26:00;8.43;;;4.97;;
64188;SDS011;50493;50.970;10.082;2022-07-23T14:28:26;6.40;;;4.47;;
64188;SDS011;50493;50.970;10.082;2022-07-23T14:30:52;4.60;;;3.75;;
64188;SDS011;50493;50.970;10.082;2022-07-23T14:33:17;5.88;;;4.60;;
64188;SDS011;50493;50.970;10.082;2022-07-23T14:35:43;6.10;;;4.65;;
64188;SDS011;50493;50.970;10.082;2022-07-23T14:38:08;6.53;;;4.88;;
64188;SDS011;50493;50.970;10.082;2022-07-23T14:40:33;5.32;;;4.63;;
64188;SDS011;50493;50.970;10.082;2022-07-23T14:42:59;5.00;;;4.30;;
64188;SDS011;50493;50.970;10.082;2022-07-23T14:45:26;5.63;;;4.95;;
64188;SDS011;50493;50.970;10.082;2022-07-23T14:47:51;5.70;;;3.85;;